• Join FlightAware (Why Join?)
  • Login
  • US Flag 
Gobble Gobble! 
04:04PM EST


 

Airport Tracker/Info


-or-


 

Live Flight TrackerFlight Track Log ✈ N78ML ✈ 23-Apr-2013 ✈ KSBA - KTRK

Flight Track Log - Related Links

Times and Time Zones

All times are in EDT time to prevent confusion due to time zone crossing. See the N78ML flight status page for this flight to view local times or setup timezone preferences in your user account.

Time Position Orientation Groundspeed Altitude Reporting Facility
EDT Latitude Longitude Course Direction KTS MPH feet Rate Location/Type
01:00PM 34.4161 -119.8361 204° Southwest 86 99 300  Level Los Angeles Center
01:01PM 34.3931 -119.8486 204° Southwest 101 116 1,100 720 Climbing Los Angeles Center
01:02PM 34.3814 -119.8578 213° Southwest 119 137 1,400 660 Climbing Los Angeles Center
01:02PM 34.3764 -119.8803 255° West 113 130 1,800 660 Climbing Los Angeles Center
01:03PM 34.3733 -119.8961 257° West 133 153 2,100 780 Climbing Los Angeles Center
01:03PM 34.3728 -119.9231 269° West 114 131 2,700 720 Climbing Los Angeles Center
01:04PM 34.3694 -119.9342 250° West 123 142 2,900 600 Climbing Los Angeles Center
01:04PM 34.3717 -119.9572 277° West 119 137 3,300 480 Climbing Los Angeles Center
01:05PM 34.3706 -119.9758 266° West 122 140 3,400 420 Climbing Los Angeles Center
01:05PM 34.3892 -120.0064 306° West 138 159 3,800 540 Climbing Los Angeles Center
01:06PM 34.3972 -120.0244 298° West 141 162 4,000 540 Climbing Los Angeles Center
01:06PM 34.4092 -120.0389 315° West 144 166 4,300 480 Climbing Los Angeles Center
01:07PM 34.4319 -120.0378 North 151 174 4,500 360 Climbing Los Angeles Center
01:07PM 34.4458 -120.0378 360° North 139 160 4,700 480 Climbing Los Angeles Center
01:08PM 34.4697 -120.0389 358° North 142 163 5,000 420 Climbing Los Angeles Center
01:08PM 34.4897 -120.0417 353° North 138 159 5,200 360 Climbing Los Angeles Center
01:09PM 34.5078 -120.0411 North 139 160 5,400 300 Climbing Los Angeles Center
01:09PM 34.5333 -120.0433 356° North 134 154 5,600 240 Climbing Los Angeles Center
01:10PM 34.5439 -120.0447 354° North 133 153 5,700 300 Climbing Los Angeles Center
01:11PM 34.5825 -120.0478 356° North 136 157 6,100 360 Climbing Los Angeles Center
01:12PM 34.6233 -120.0492 358° North 139 160 6,500 360 Climbing Los Angeles Center
01:13PM 34.6622 -120.0503 359° North 139 160 6,900 480 Climbing Los Angeles Center
01:14PM 34.7072 -120.0542 356° North 136 157 7,500 480 Climbing Los Angeles Center
01:15PM 34.7450 -120.0572 356° North 136 157 8,000 420 Climbing Los Angeles Center
01:16PM 34.7817 -120.0592 358° North 133 153 8,400 180 Climbing Los Angeles Center
01:17PM 34.8214 -120.0617 357° North 140 161 8,400  Level Los Angeles Center
01:18PM 34.8600 -120.0647 356° North 141 162 8,400  Level Los Angeles Center
01:19PM 34.9053 -120.0681 357° North 136 157 8,400  Level Los Angeles Center
01:20PM 34.9442 -120.0703 357° North 139 160 8,400  Level Los Angeles Center
01:21PM 34.9833 -120.0731 357° North 141 162 8,400  Level Los Angeles Center
01:22PM 35.0239 -120.0758 357° North 145 167 8,400  Level Los Angeles Center
01:23PM 35.0633 -120.0781 357° North 143 165 8,400  Level Los Angeles Center
01:24PM 35.1033 -120.0811 356° North 143 165 8,400  Level Los Angeles Center
01:25PM 35.1508 -120.0850 356° North 144 166 8,400  Level Los Angeles Center
01:26PM 35.1894 -120.0878 357° North 141 162 8,400  Level Los Angeles Center
01:28PM 35.2292 -120.0903 357° North 142 163 8,400  Level Los Angeles Center
01:29PM 35.2697 -120.0936 356° North 145 167 8,500  Climbing Los Angeles Center
01:30PM 35.3078 -120.0956 358° North 140 161 8,400 -60 Descending Los Angeles Center
01:31PM 35.3547 -120.0997 356° North 140 161 8,400  Level Los Angeles Center
01:31PM 35.3772 -120.1011 357° North 140 161 8,400  Level Oakland Center
01:32PM 35.4158 -120.1039 357° North 140 161 8,400  Level Oakland Center
01:33PM 35.4533 -120.1061 357° North 138 159 8,400  Level Oakland Center
01:34PM 35.4908 -120.1094 356° North 136 157 8,400  Level Oakland Center
01:35PM 35.5350 -120.1131 356° North 135 155 8,500  Climbing Oakland Center
01:36PM 35.5703 -120.1161 356° North 131 151 8,500  Level Oakland Center
01:37PM 35.6078 -120.1183 357° North 132 152 8,500  Level Oakland Center
01:38PM 35.6453 -120.1208 357° North 134 154 8,500  Level Oakland Center
01:39PM 35.6836 -120.1225 358° North 136 157 8,500  Level Oakland Center
01:40PM 35.7217 -120.1244 358° North 137 158 8,500  Level Oakland Center
01:42PM 35.7592 -120.1281 356° North 136 157 8,500  Level Oakland Center
01:43PM 35.7975 -120.1314 356° North 137 158 8,500  Level Oakland Center
01:44PM 35.8442 -120.1344 357° North 139 160 8,500  Level Oakland Center
01:45PM 35.8828 -120.1364 358° North 139 160 8,500  Level Oakland Center
01:46PM 35.9231 -120.1392 357° North 141 162 8,500  Level Oakland Center
01:47PM 35.9614 -120.1422 356° North 140 161 8,500  Level Oakland Center
01:48PM 35.9992 -120.1444 357° North 137 158 8,500  Level Oakland Center
01:49PM 36.0378 -120.1439 North 138 159 8,500  Level Oakland Center
01:50PM 36.0756 -120.1475 356° North 136 157 8,500  Level Oakland Center
01:51PM 36.1133 -120.1506 356° North 136 157 8,500  Level Oakland Center
01:52PM 36.1589 -120.1528 358° North 136 157 8,500  Level Oakland Center
01:53PM 36.1967 -120.1564 356° North 137 158 8,600  Climbing Oakland Center
01:54PM 36.2350 -120.1589 357° North 138 159 8,600  Level Oakland Center
01:55PM 36.2733 -120.1619 356° North 138 159 8,600 -60 Level Oakland Center
01:56PM 36.3117 -120.1647 357° North 138 159 8,500 -60 Descending Oakland Center
01:57PM 36.3500 -120.1672 357° North 138 159 8,500  Level Oakland Center
01:58PM 36.3881 -120.1711 355° North 138 159 8,500  Level Oakland Center
01:59PM 36.4272 -120.1733 357° North 140 161 8,500  Level Oakland Center
02:00PM 36.4739 -120.1769 356° North 142 163 8,500  Level Oakland Center
02:01PM 36.5119 -120.1803 356° North 138 159 8,500  Level Oakland Center
02:02PM 36.5503 -120.1831 357° North 139 160 8,500  Level Oakland Center
02:03PM 36.5894 -120.1864 356° North 141 162 8,500  Level Oakland Center
02:04PM 36.6283 -120.1900 356° North 140 161 8,500  Level Oakland Center
02:05PM 36.6681 -120.1933 356° North 143 165 8,500  Level Oakland Center
02:06PM 36.7081 -120.1956 357° North 143 165 8,500  Level Oakland Center
02:07PM 36.7472 -120.1986 356° North 142 163 8,500  Level Oakland Center
02:08PM 36.7864 -120.2019 356° North 142 163 8,500  Level Oakland Center
02:09PM 36.8333 -120.2061 356° North 141 162 8,500  Level Oakland Center
02:10PM 36.8717 -120.2086 357° North 141 162 8,500  Level Oakland Center
02:11PM 36.9131 -120.2117 357° North 140 161 8,500  Level Oakland Center
02:12PM 36.9506 -120.2147 356° North 139 160 8,500  Level Oakland Center
02:13PM 36.9917 -120.2181 356° North 138 159 8,500  Level Oakland Center
02:14PM 37.0294 -120.2219 355° North 138 159 8,500  Level Oakland Center
02:15PM 37.0683 -120.2247 357° North 137 158 8,500  Level Oakland Center
02:16PM 37.1081 -120.2286 356° North 141 162 8,500  Level Oakland Center
02:17PM 37.1467 -120.2306 358° North 139 160 8,500  Level Oakland Center
02:18PM 37.1869 -120.2347 355° North 144 166 8,500  Level Oakland Center
02:19PM 37.2256 -120.2358 359° North 141 162 8,500  Level Oakland Center
02:20PM 37.2661 -120.2386 357° North 146 168 8,500  Level Oakland Center
02:21PM 37.3133 -120.2422 357° North 142 163 8,500  Level Oakland Center
02:22PM 37.3519 -120.2492 352° North 146 168 8,500  Level Oakland Center
02:23PM 37.3969 -120.2425 North 159 183 8,500  Level Oakland Center
02:24PM 37.4358 -120.2453 357° North 147 169 8,500  Level Oakland Center
02:26PM 37.4722 -120.2492 355° North 140 161 8,500  Level Oakland Center
02:27PM 37.5119 -120.2533 355° North 139 160 8,500  Level Oakland Center
02:28PM 37.5503 -120.2556 357° North 138 159 8,500  Level Oakland Center
02:30PM 37.6275 -120.2650 354° North 138 159 8,500  Level Oakland Center
02:31PM 37.6717 -120.2650 360° North 133 153 8,500  Level Oakland Center
02:32PM 37.7106 -120.2689 355° North 137 158 8,500  Level Oakland Center
02:33PM 37.7481 -120.2711 357° North 136 157 8,500  Level Oakland Center
02:34PM 37.7853 -120.2758 354° North 136 157 8,500  Level Oakland Center
02:35PM 37.8244 -120.2772 358° North 137 158 8,500  Level Oakland Center
02:36PM 37.8628 -120.2808 356° North 139 160 8,500  Level Oakland Center
02:37PM 37.9008 -120.2833 357° North 137 158 8,500  Level Oakland Center
02:38PM 37.9392 -120.2867 356° North 135 155 8,500  Level Oakland Center
02:39PM 37.9781 -120.2900 356° North 139 160 8,500  Level Oakland Center
02:40PM 38.0278 -120.2931 357° North 146 168 8,500  Level Oakland Center
02:41PM 38.0650 -120.2969 355° North 140 161 8,500  Level Oakland Center
02:42PM 38.1042 -120.2994 357° North 139 160 8,500  Level Oakland Center
02:43PM 38.1428 -120.3025 356° North 140 161 8,500  Level Oakland Center
02:44PM 38.1819 -120.3061 356° North 140 161 8,500  Level Oakland Center
02:45PM 38.2211 -120.3086 357° North 140 161 8,500  Level Oakland Center
02:46PM 38.2611 -120.3111 357° North 142 163 8,500  Level Oakland Center
02:47PM 38.3019 -120.3144 356° North 146 168 8,500  Level Oakland Center
02:48PM 38.3422 -120.3178 356° North 145 167 8,500  Level Oakland Center
02:49PM 38.3892 -120.3211 357° North 142 163 8,500  Level Oakland Center
02:50PM 38.4292 -120.3244 356° North 142 163 8,500  Level Oakland Center
02:51PM 38.4697 -120.3278 356° North 146 168 8,500  Level Oakland Center
02:52PM 38.5100 -120.3306 357° North 145 167 8,500  Level Oakland Center
02:53PM 38.5511 -120.3342 356° North 147 169 8,500  Level Oakland Center
02:54PM 38.5908 -120.3375 356° North 145 167 8,500  Level Oakland Center
02:55PM 38.6317 -120.3411 356° North 146 168 8,500  Level Oakland Center
02:56PM 38.6708 -120.3431 358° North 144 166 8,500  Level Oakland Center
02:57PM 38.7119 -120.3483 354° North 146 168 8,600  Climbing Oakland Center
02:58PM 38.7528 -120.3544 353° North 146 168 8,500 -60 Descending Oakland Center
02:59PM 38.8028 -120.3594 356° North 149 171 8,500  Level Oakland Center
03:00PM 38.8444 -120.3586 North 151 174 8,500  Level Oakland Center
03:01PM 38.8856 -120.3606 358° North 149 171 8,500 -60 Level Oakland Center
03:02PM 38.9278 -120.3658 354° North 150 173 8,400  Descending Oakland Center
03:03PM 38.9692 -120.3689 357° North 151 174 8,500  Climbing Oakland Center
03:04PM 39.0114 -120.3717 357° North 152 175 8,500  Level Oakland Center
03:05PM 39.0528 -120.3742 357° North 150 173 8,500  Level Oakland Center
03:06PM 39.0942 -120.3764 358° North 149 171 8,500  Level Oakland Center
03:07PM 39.1356 -120.3789 357° North 151 174 8,500  Level Oakland Center
03:08PM 39.1775 -120.3847 354° North 150 173 8,500 60 Level Oakland Center
03:09PM 39.2283 -120.3881 357° North 154 177 8,700 60 Climbing Oakland Center
03:10PM 39.2694 -120.3894 359° North 150 173 8,700 -60 Level Oakland Center
03:11PM 39.3064 -120.3650 27° Northeast 154 177 8,600 -120 Descending Oakland Center